Sandberg, California
Current Conditions -  °F | °C
As of 7:48 PM on Sunday 23 Nov 2014 (Local Time) from KSDB Reporting Station
Clear Clear  
Wind Chill: 40°   Ceiling: Unl
Heat Index: 46°   Visibility: 10mi
Dew Point: 23°   Wind: 15mph
Humidity: 40%   Direction: 330°NNW
Pressure: 30.28"   Gusts: NA
Location:  34.6849°N, 118.558°W
Report Text: KSDB 240348Z AUTO 33013KT 10SM CLR 08/M05 A3028 RMK AO2 SLP239 T00781050 $
Loading
Personal Weather Stations






























Interactive Weather Map New forecast layout! Learn more

10-Day Weather Forecast

Advertisements
Track Severe Weather on mobile